createdAt,value
2023-10-10T00:01:48.326Z,81.24
2023-10-10T00:04:20.692Z,81.40
2023-10-10T00:06:53.206Z,81.51
2023-10-10T00:09:27.618Z,82.59
2023-10-10T00:11:59.473Z,82.37
2023-10-10T00:14:31.260Z,82.01
2023-10-10T00:17:03.153Z,81.80
2023-10-10T00:19:45.329Z,81.48
2023-10-10T00:22:19.019Z,81.34
2023-10-10T00:24:50.782Z,80.82
2023-10-10T00:27:25.045Z,80.73
2023-10-10T00:29:56.862Z,80.32
2023-10-10T00:32:30.728Z,80.35
2023-10-10T00:35:03.941Z,80.34
2023-10-10T00:37:36.434Z,81.00
2023-10-10T00:40:12.160Z,80.81
2023-10-10T00:42:43.981Z,81.15
2023-10-10T00:45:16.022Z,80.99
2023-10-10T00:47:49.210Z,80.68
2023-10-10T00:50:26.211Z,81.38
2023-10-10T00:52:58.334Z,81.07
2023-10-10T00:55:34.906Z,80.17
2023-10-10T00:58:09.147Z,80.94
2023-10-10T01:00:47.669Z,80.25
2023-10-10T01:03:22.968Z,80.38
2023-10-10T01:05:55.503Z,80.28
2023-10-10T01:08:32.734Z,80.33
2023-10-10T01:11:06.769Z,80.15
2023-10-10T01:13:41.515Z,80.62
2023-10-10T01:16:13.486Z,80.96
2023-10-10T01:18:58.884Z,81.06
2023-10-10T01:21:32.374Z,80.58
2023-10-10T01:24:13.171Z,80.57
2023-10-10T01:26:48.837Z,80.43
2023-10-10T01:29:28.574Z,80.11
2023-10-10T01:32:00.726Z,80.05
2023-10-10T01:34:32.700Z,80.26
2023-10-10T01:37:09.174Z,79.82
2023-10-10T01:40:19.260Z,79.60
2023-10-10T01:42:55.710Z,80.08
2023-10-10T01:45:31.278Z,79.79
2023-10-10T01:48:09.906Z,79.78
2023-10-10T01:50:42.244Z,80.32
2023-10-10T01:53:14.066Z,80.09
2023-10-10T01:55:48.943Z,80.45
2023-10-10T01:58:21.546Z,80.06
2023-10-10T02:00:55.948Z,79.92
2023-10-10T02:03:29.445Z,80.18
2023-10-10T02:06:01.758Z,80.02
2023-10-10T02:08:36.393Z,80.29
2023-10-10T02:11:10.108Z,81.04
2023-10-10T02:13:46.037Z,81.76
2023-10-10T02:16:24.939Z,81.28
2023-10-10T02:19:00.598Z,80.10
2023-10-10T02:21:44.512Z,80.07
2023-10-10T02:24:45.433Z,80.05
2023-10-10T02:27:21.549Z,79.85
2023-10-10T02:29:54.886Z,80.05
2023-10-10T02:32:30.918Z,79.82
2023-10-10T02:35:28.340Z,79.41
2023-10-10T02:38:05.179Z,79.35
2023-10-10T02:40:44.141Z,79.58
2023-10-10T02:43:34.886Z,79.56
2023-10-10T02:46:07.272Z,79.54
2023-10-10T02:48:43.541Z,79.50
2023-10-10T02:51:17.304Z,80.06
2023-10-10T02:53:49.264Z,79.75
2023-10-10T02:56:21.500Z,79.86
2023-10-10T02:58:55.767Z,80.39
2023-10-10T03:01:46.027Z,80.51
2023-10-10T03:04:19.094Z,80.64
2023-10-10T03:06:51.033Z,80.51
2023-10-10T03:09:43.080Z,80.04
2023-10-10T03:12:18.991Z,80.24
2023-10-10T03:14:54.685Z,80.58
2023-10-10T03:17:45.689Z,81.26
2023-10-10T03:20:35.894Z,80.04
2023-10-10T03:23:14.113Z,80.22
2023-10-10T03:25:56.051Z,80.10
2023-10-10T03:28:27.933Z,81.64
2023-10-10T03:31:24.380Z,81.03
2023-10-10T03:34:05.082Z,81.35
2023-10-10T03:36:46.535Z,80.84
2023-10-10T03:39:25.488Z,80.29
2023-10-10T03:42:15.748Z,80.55
2023-10-10T03:45:06.224Z,80.90
2023-10-10T03:47:56.647Z,80.39
2023-10-10T03:50:47.105Z,80.07
2023-10-10T03:53:37.601Z,80.45
2023-10-10T03:56:34.405Z,80.24
2023-10-10T03:59:25.237Z,79.95
2023-10-10T04:02:16.198Z,80.33
2023-10-10T04:05:23.785Z,80.02
2023-10-10T04:08:16.604Z,80.27
2023-10-10T04:11:07.067Z,80.31
2023-10-10T04:13:57.552Z,80.18
2023-10-10T04:16:47.935Z,80.37
2023-10-10T04:19:38.293Z,80.45
2023-10-10T04:22:28.665Z,80.07
2023-10-10T04:25:19.121Z,80.01
2023-10-10T04:28:09.433Z,79.93
2023-10-10T04:31:00.014Z,79.91
2023-10-10T04:33:50.095Z,80.16
2023-10-10T04:36:40.517Z,80.11
2023-10-10T04:39:30.896Z,79.74
2023-10-10T04:42:21.300Z,79.95
2023-10-10T04:45:11.614Z,79.96
2023-10-10T04:48:02.114Z,80.11
2023-10-10T04:50:52.565Z,80.35
2023-10-10T04:53:43.143Z,80.65
2023-10-10T04:56:33.650Z,80.50
2023-10-10T04:59:24.126Z,80.97
2023-10-10T05:02:14.415Z,80.64
2023-10-10T05:05:04.914Z,80.92
2023-10-10T05:07:55.324Z,80.78
2023-10-10T05:10:45.776Z,80.58
2023-10-10T05:13:36.123Z,80.66
2023-10-10T05:16:26.607Z,81.16
2023-10-10T05:19:16.773Z,82.09
2023-10-10T05:22:07.236Z,81.27
2023-10-10T05:24:44.604Z,81.61
2023-10-10T05:27:16.493Z,81.80
2023-10-10T05:29:51.340Z,81.98
2023-10-10T05:32:24.469Z,82.61
2023-10-10T05:34:58.557Z,82.39
2023-10-10T05:37:32.986Z,82.06
2023-10-10T05:40:08.322Z,83.36
2023-10-10T05:42:40.838Z,83.16
2023-10-10T05:45:15.202Z,83.48
2023-10-10T05:47:47.148Z,83.86
2023-10-10T05:50:20.096Z,82.86
2023-10-10T05:52:53.136Z,82.94
2023-10-10T05:55:24.939Z,82.80
2023-10-10T05:57:58.725Z,83.10
2023-10-10T06:00:37.861Z,83.51
2023-10-10T06:03:11.566Z,83.15
2023-10-10T06:05:47.312Z,83.02
2023-10-10T06:08:19.397Z,83.01
2023-10-10T06:10:51.212Z,83.24
2023-10-10T06:13:23.933Z,83.56
2023-10-10T06:15:55.824Z,83.46
2023-10-10T06:18:27.714Z,83.51
2023-10-10T06:23:38.872Z,83.76
2023-10-10T06:26:11.180Z,83.75
2023-10-10T06:28:49.553Z,84.45
2023-10-10T06:31:22.318Z,86.06
2023-10-10T06:33:59.314Z,85.06
2023-10-10T06:36:34.007Z,85.25
2023-10-10T06:39:06.250Z,84.88
2023-10-10T06:41:40.596Z,85.29
2023-10-10T06:44:15.448Z,84.00
2023-10-10T06:46:50.746Z,85.32
2023-10-10T06:49:23.769Z,84.42
2023-10-10T06:51:56.843Z,84.64
2023-10-10T06:54:35.899Z,83.88
2023-10-10T06:57:10.479Z,84.10
2023-10-10T06:59:42.370Z,84.36
2023-10-10T07:02:20.438Z,84.96
2023-10-10T07:04:55.101Z,84.37
2023-10-10T07:07:27.868Z,84.28
2023-10-10T07:10:00.240Z,84.30
2023-10-10T07:12:33.210Z,85.40
2023-10-10T07:15:07.994Z,84.20
2023-10-10T07:17:40.610Z,83.95
2023-10-10T07:20:12.515Z,82.98
2023-10-10T07:22:46.167Z,83.01
2023-10-10T07:25:33.638Z,83.00
2023-10-10T07:28:06.583Z,83.43
2023-10-10T07:30:44.103Z,82.54
2023-10-10T07:33:15.883Z,82.39
2023-10-10T07:35:54.969Z,82.36
2023-10-10T07:38:30.413Z,82.03
2023-10-10T07:41:06.215Z,80.96
2023-10-10T07:43:39.352Z,80.56
2023-10-10T07:46:23.984Z,80.48
2023-10-10T07:48:55.825Z,80.24
2023-10-10T07:51:30.234Z,79.73
2023-10-10T07:54:14.368Z,78.60
2023-10-10T07:56:46.989Z,78.72
2023-10-10T07:59:19.012Z,77.00
2023-10-10T08:01:55.345Z,77.79
2023-10-10T08:04:27.185Z,75.84
2023-10-10T08:06:58.957Z,76.64
2023-10-10T08:09:31.317Z,75.53
2023-10-10T08:12:06.243Z,74.71
2023-10-10T08:14:41.105Z,73.36
2023-10-10T08:17:27.557Z,72.50
2023-10-10T08:20:19.406Z,70.53
2023-10-10T08:22:51.153Z,70.42
2023-10-10T08:25:24.482Z,70.46
2023-10-10T08:27:57.205Z,69.80
2023-10-10T08:30:29.076Z,69.55
2023-10-10T08:33:01.685Z,68.56
2023-10-10T08:35:40.559Z,68.40
2023-10-10T08:38:14.735Z,66.42
2023-10-10T08:40:59.493Z,67.04
2023-10-10T08:43:33.101Z,66.03
2023-10-10T08:46:05.795Z,65.79
2023-10-10T08:48:38.788Z,65.46
2023-10-10T08:51:10.752Z,65.79
2023-10-10T08:53:42.578Z,64.61
2023-10-10T08:56:16.588Z,64.21
2023-10-10T08:58:48.430Z,63.47
2023-10-10T09:01:20.353Z,63.86
2023-10-10T09:03:52.225Z,64.71
2023-10-10T09:06:24.031Z,64.39
2023-10-10T09:08:57.066Z,62.83
2023-10-10T09:11:31.937Z,63.62
2023-10-10T09:14:11.338Z,61.93
2023-10-10T09:16:43.385Z,61.23
2023-10-10T09:19:16.180Z,62.31
2023-10-10T09:21:57.677Z,62.62
2023-10-10T09:24:38.913Z,62.52
2023-10-10T09:27:29.750Z,62.21
2023-10-10T09:30:10.068Z,62.65
2023-10-10T09:32:44.197Z,62.13
2023-10-10T09:35:16.123Z,61.84
2023-10-10T09:37:48.345Z,61.26
2023-10-10T09:40:20.854Z,61.73
2023-10-10T09:43:02.701Z,61.81
2023-10-10T09:45:54.432Z,58.56
2023-10-10T09:48:55.613Z,59.66
2023-10-10T09:51:48.444Z,60.12
2023-10-10T09:54:26.859Z,60.16
2023-10-10T09:57:00.322Z,59.93
2023-10-10T09:59:33.912Z,60.85
2023-10-10T10:02:06.644Z,60.90
2023-10-10T10:04:43.477Z,58.05
2023-10-10T10:07:29.026Z,59.21
2023-10-10T10:10:49.968Z,60.00
2023-10-10T10:13:57.889Z,57.79
2023-10-10T10:16:47.929Z,59.09
2023-10-10T10:19:24.138Z,58.67
2023-10-10T10:22:09.720Z,58.32
2023-10-10T10:24:47.375Z,58.51
2023-10-10T10:27:36.661Z,58.13
2023-10-10T10:30:20.836Z,58.38
2023-10-10T10:32:56.989Z,58.28
2023-10-10T10:35:58.508Z,59.30
2023-10-10T10:38:33.205Z,59.75
2023-10-10T10:41:18.535Z,57.35
2023-10-10T10:43:53.335Z,58.28
2023-10-10T10:46:41.192Z,58.84
2023-10-10T10:49:16.609Z,56.83
2023-10-10T10:51:48.894Z,56.70
2023-10-10T10:54:38.742Z,56.89
2023-10-10T10:57:43.126Z,56.78
2023-10-10T11:00:41.911Z,56.17
2023-10-10T11:03:14.736Z,55.10
2023-10-10T11:05:46.748Z,56.71
2023-10-10T11:08:50.620Z,56.28
2023-10-10T11:11:37.160Z,53.28
2023-10-10T11:14:20.561Z,54.74
2023-10-10T11:16:58.353Z,54.51
2023-10-10T11:19:31.523Z,54.42
2023-10-10T11:22:06.891Z,55.74
2023-10-10T11:24:38.920Z,54.98
2023-10-10T11:27:13.272Z,54.75
2023-10-10T11:29:51.599Z,54.15
2023-10-10T11:32:30.663Z,55.00
2023-10-10T11:35:17.602Z,56.11
2023-10-10T11:37:50.367Z,55.47
2023-10-10T11:40:42.404Z,55.34
2023-10-10T11:43:14.474Z,53.88
2023-10-10T11:45:52.967Z,55.29
2023-10-10T11:48:27.771Z,53.95
2023-10-10T11:51:00.903Z,53.18
2023-10-10T11:53:38.181Z,53.29
2023-10-10T11:56:15.220Z,53.19
2023-10-10T11:58:50.875Z,54.54
2023-10-10T12:01:42.667Z,54.41
2023-10-10T12:04:40.345Z,54.17
2023-10-10T12:07:15.279Z,53.67
2023-10-10T12:09:48.923Z,54.96
2023-10-10T12:12:22.873Z,56.18
2023-10-10T12:14:55.092Z,56.44
2023-10-10T12:17:29.600Z,56.14
2023-10-10T12:20:01.440Z,55.11
2023-10-10T12:22:33.247Z,54.70
2023-10-10T12:25:06.292Z,55.28
2023-10-10T12:27:38.064Z,55.30
2023-10-10T12:30:14.387Z,55.56
2023-10-10T12:32:50.866Z,54.96
2023-10-10T12:35:25.750Z,54.81
2023-10-10T12:38:02.638Z,56.74
2023-10-10T12:40:34.927Z,56.45
2023-10-10T12:43:09.226Z,56.55
2023-10-10T12:45:41.009Z,57.52
2023-10-10T12:48:21.814Z,56.61
2023-10-10T12:50:53.988Z,56.91
2023-10-10T12:53:32.048Z,55.97
2023-10-10T12:56:03.877Z,56.17
2023-10-10T12:58:35.667Z,57.39
2023-10-10T13:01:07.444Z,55.40
2023-10-10T13:03:39.826Z,54.90
2023-10-10T13:06:11.747Z,55.46
2023-10-10T13:09:04.386Z,56.13
2023-10-10T13:11:45.529Z,55.61
2023-10-10T13:14:20.585Z,55.45
2023-10-10T13:16:52.863Z,54.35
2023-10-10T13:19:24.820Z,54.25
2023-10-10T13:21:56.620Z,55.98
2023-10-10T13:24:28.420Z,54.79
2023-10-10T13:27:00.239Z,55.08
2023-10-10T13:29:32.088Z,54.79
2023-10-10T13:32:06.158Z,54.39
2023-10-10T13:34:39.111Z,54.92
2023-10-10T13:37:10.976Z,55.44
2023-10-10T13:39:49.242Z,54.72
2023-10-10T13:42:22.095Z,54.93
2023-10-10T13:45:02.702Z,54.78
2023-10-10T13:47:34.602Z,52.79
2023-10-10T13:50:26.829Z,53.05
2023-10-10T13:53:00.801Z,53.91
2023-10-10T13:55:35.566Z,54.33
2023-10-10T13:58:13.521Z,55.24
2023-10-10T14:00:57.120Z,54.86
2023-10-10T14:03:36.853Z,55.05
2023-10-10T14:06:13.799Z,55.11
2023-10-10T14:08:45.777Z,55.31
2023-10-10T14:11:25.029Z,55.55
2023-10-10T14:13:57.088Z,55.40
2023-10-10T14:16:31.444Z,55.27
2023-10-10T14:19:03.288Z,55.61
2023-10-10T14:21:39.996Z,55.74
2023-10-10T14:24:15.366Z,55.50
2023-10-10T14:26:50.210Z,55.62
2023-10-10T14:29:22.251Z,55.85
2023-10-10T14:32:00.245Z,55.83
2023-10-10T14:34:36.488Z,56.24
2023-10-10T14:37:20.464Z,56.60
2023-10-10T14:40:01.093Z,55.64
2023-10-10T14:42:32.856Z,56.31
2023-10-10T14:45:08.020Z,56.82
2023-10-10T14:47:44.181Z,57.25
2023-10-10T14:50:16.010Z,57.85
2023-10-10T14:52:51.105Z,57.43
2023-10-10T14:55:25.808Z,58.10
2023-10-10T14:57:57.747Z,57.84
2023-10-10T15:00:30.200Z,57.67
2023-10-10T15:03:02.607Z,57.79
2023-10-10T15:05:34.504Z,57.94
2023-10-10T15:08:06.562Z,57.17
2023-10-10T15:10:42.308Z,58.55
2023-10-10T15:13:16.810Z,58.72
2023-10-10T15:15:49.659Z,59.06
2023-10-10T15:18:21.567Z,59.21
2023-10-10T15:20:53.980Z,59.37
2023-10-10T15:23:26.498Z,60.45
2023-10-10T15:26:13.084Z,59.44
2023-10-10T15:28:45.631Z,59.84
2023-10-10T15:31:17.428Z,59.82
2023-10-10T15:33:49.252Z,60.40
2023-10-10T15:36:21.124Z,61.03
2023-10-10T15:38:52.887Z,62.49
2023-10-10T15:41:26.680Z,61.94
2023-10-10T15:44:04.092Z,62.52
2023-10-10T15:46:38.857Z,61.94
2023-10-10T15:49:33.225Z,62.21
2023-10-10T15:52:06.281Z,62.63
2023-10-10T15:54:38.512Z,62.65
2023-10-10T15:57:10.972Z,62.83
2023-10-10T15:59:43.775Z,63.47
2023-10-10T16:02:15.916Z,63.79
2023-10-10T16:04:47.792Z,63.66
2023-10-10T16:07:19.660Z,64.17
2023-10-10T16:09:53.757Z,64.16
2023-10-10T16:12:25.586Z,64.21
2023-10-10T16:14:57.447Z,64.54
2023-10-10T16:17:30.154Z,64.62
2023-10-10T16:20:06.684Z,64.93
2023-10-10T16:22:40.992Z,65.25
2023-10-10T16:25:14.806Z,65.02
2023-10-10T16:27:46.563Z,65.51
2023-10-10T16:30:18.484Z,65.11
2023-10-10T16:32:51.005Z,65.43
2023-10-10T16:35:22.969Z,65.70
2023-10-10T16:37:55.123Z,65.99
2023-10-10T16:40:30.879Z,66.13
2023-10-10T16:43:03.583Z,66.07
2023-10-10T16:45:35.382Z,66.23
2023-10-10T16:48:10.096Z,66.46
2023-10-10T16:50:43.301Z,66.64
2023-10-10T16:53:15.184Z,66.74
2023-10-10T16:55:46.968Z,66.90
2023-10-10T16:58:18.976Z,67.30
2023-10-10T17:00:51.188Z,67.42
2023-10-10T17:03:24.010Z,67.91
2023-10-10T17:05:58.648Z,68.16
2023-10-10T17:08:33.534Z,68.28
2023-10-10T17:11:15.985Z,68.33
2023-10-10T17:13:48.412Z,68.48
2023-10-10T17:16:30.295Z,68.86
2023-10-10T17:19:16.333Z,69.15
2023-10-10T17:21:48.984Z,69.60
2023-10-10T17:24:21.385Z,69.82
2023-10-10T17:26:55.375Z,70.61
2023-10-10T17:29:28.071Z,70.69
2023-10-10T17:32:01.240Z,70.36
2023-10-10T17:34:34.897Z,70.72
2023-10-10T17:37:10.194Z,70.48
2023-10-10T17:39:41.994Z,70.58
2023-10-10T17:42:13.751Z,70.37
2023-10-10T17:44:46.050Z,70.77
2023-10-10T17:47:17.888Z,70.47
2023-10-10T17:49:49.694Z,70.44
2023-10-10T17:52:22.800Z,70.67
2023-10-10T17:54:54.787Z,70.71
2023-10-10T17:57:26.572Z,70.73
2023-10-10T17:59:58.507Z,70.43
2023-10-10T18:02:33.546Z,70.73
2023-10-10T18:05:06.934Z,70.75
2023-10-10T18:07:39.718Z,70.45
2023-10-10T18:10:12.805Z,70.54
2023-10-10T18:12:44.978Z,70.56
2023-10-10T18:15:20.279Z,70.55
2023-10-10T18:17:57.031Z,70.87
2023-10-10T18:20:31.169Z,70.77
2023-10-10T18:23:03.300Z,71.13
2023-10-10T18:25:39.269Z,70.96
2023-10-10T18:28:12.364Z,70.92
2023-10-10T18:30:46.927Z,71.13
2023-10-10T18:33:18.820Z,72.17
2023-10-10T18:35:50.742Z,72.07
2023-10-10T18:38:22.560Z,71.69
2023-10-10T18:40:56.118Z,72.28
2023-10-10T18:43:27.979Z,71.98
2023-10-10T18:46:01.590Z,72.09
2023-10-10T18:48:38.420Z,72.75
2023-10-10T18:51:14.762Z,72.43
2023-10-10T18:53:48.682Z,72.45
2023-10-10T18:56:20.550Z,72.82
2023-10-10T18:58:52.383Z,72.51
2023-10-10T19:01:24.368Z,73.00
2023-10-10T19:03:56.223Z,72.67
2023-10-10T19:06:28.094Z,72.46
2023-10-10T19:09:01.636Z,72.62
2023-10-10T19:11:33.588Z,72.92
2023-10-10T19:14:05.431Z,72.99
2023-10-10T19:16:40.363Z,73.24
2023-10-10T19:19:12.157Z,73.15
2023-10-10T19:21:46.498Z,73.35
2023-10-10T19:24:21.626Z,73.31
2023-10-10T19:26:54.535Z,73.50
2023-10-10T19:29:30.153Z,73.52
2023-10-10T19:32:02.011Z,73.71
2023-10-10T19:34:34.491Z,73.49
2023-10-10T19:37:06.293Z,73.73
2023-10-10T19:39:38.055Z,73.88
2023-10-10T19:42:09.852Z,74.14
2023-10-10T19:44:41.682Z,74.11
2023-10-10T19:47:13.487Z,73.93
2023-10-10T19:49:45.299Z,73.83
2023-10-10T19:52:17.072Z,73.89
2023-10-10T19:54:48.857Z,74.08
2023-10-10T19:57:20.642Z,74.17
2023-10-10T19:59:52.433Z,74.40
2023-10-10T20:02:24.375Z,74.07
2023-10-10T20:04:56.988Z,74.15
2023-10-10T20:07:28.983Z,74.07
2023-10-10T20:10:00.741Z,74.21
2023-10-10T20:12:32.514Z,74.54
2023-10-10T20:15:04.730Z,73.96
2023-10-10T20:17:37.723Z,74.10
2023-10-10T20:20:10.824Z,74.32
2023-10-10T20:22:45.682Z,74.15
2023-10-10T20:25:20.264Z,73.77
2023-10-10T20:27:52.133Z,74.17
2023-10-10T20:30:27.652Z,74.21
2023-10-10T20:33:02.700Z,74.87
2023-10-10T20:35:36.293Z,74.41
2023-10-10T20:38:08.125Z,74.40
2023-10-10T20:40:44.540Z,74.98
2023-10-10T20:43:16.541Z,74.82
2023-10-10T20:45:48.394Z,74.92
2023-10-10T20:48:23.355Z,74.84
2023-10-10T20:50:55.379Z,75.21
2023-10-10T20:53:29.339Z,75.62
2023-10-10T20:56:03.350Z,75.29
2023-10-10T20:58:35.989Z,75.49
2023-10-10T21:01:13.326Z,75.45
2023-10-10T21:03:45.410Z,75.18
2023-10-10T21:06:17.233Z,75.16
2023-10-10T21:08:50.696Z,75.28
2023-10-10T21:11:23.136Z,75.88
2023-10-10T21:13:54.953Z,75.69
2023-10-10T21:16:26.850Z,75.72
2023-10-10T21:18:59.089Z,75.55
2023-10-10T21:21:30.943Z,75.41
2023-10-10T21:24:02.745Z,75.84
2023-10-10T21:26:34.678Z,75.17
2023-10-10T21:29:06.449Z,75.04
2023-10-10T21:31:38.205Z,74.83
2023-10-10T21:34:11.799Z,74.72
2023-10-10T21:36:43.606Z,75.00
2023-10-10T21:39:19.964Z,74.55
2023-10-10T21:41:51.818Z,74.31
2023-10-10T21:44:23.644Z,74.24
2023-10-10T21:46:55.431Z,73.98
2023-10-10T21:49:30.183Z,74.14
2023-10-10T21:52:02.419Z,74.09
2023-10-10T21:54:34.215Z,73.69
2023-10-10T21:57:05.996Z,73.63
2023-10-10T21:59:39.123Z,73.35
2023-10-10T22:02:11.096Z,73.36
2023-10-10T22:04:44.274Z,73.41
2023-10-10T22:15:38.785Z,73.61
2023-10-10T22:18:13.248Z,73.42
2023-10-10T22:20:45.478Z,73.45
2023-10-10T22:23:17.389Z,73.19
2023-10-10T22:25:49.546Z,73.66
2023-10-10T22:28:21.479Z,73.73
2023-10-10T22:30:53.438Z,73.49
2023-10-10T22:33:25.395Z,74.14
2023-10-10T22:35:57.557Z,73.75
2023-10-10T22:38:29.503Z,73.55
2023-10-10T22:41:01.409Z,74.10
2023-10-10T22:43:33.323Z,74.29
2023-10-10T22:46:05.302Z,74.28
2023-10-10T22:48:37.806Z,74.39
2023-10-10T22:51:11.186Z,74.26
2023-10-10T22:53:43.716Z,75.09
2023-10-10T22:56:19.588Z,74.80
2023-10-10T22:58:51.557Z,75.67
2023-10-10T23:01:23.762Z,75.53
2023-10-10T23:03:56.791Z,76.14
2023-10-10T23:06:29.954Z,75.58
2023-10-10T23:09:08.963Z,75.66
2023-10-10T23:11:41.064Z,75.47
2023-10-10T23:14:14.279Z,76.10
2023-10-10T23:16:46.371Z,75.62
2023-10-10T23:19:19.042Z,75.56
2023-10-10T23:21:50.956Z,75.29
2023-10-10T23:24:22.862Z,75.14
2023-10-10T23:26:55.956Z,75.02
2023-10-10T23:29:27.912Z,74.84
2023-10-10T23:32:00.587Z,74.38
2023-10-10T23:34:32.600Z,75.10
2023-10-10T23:37:05.123Z,74.54
2023-10-10T23:39:37.059Z,75.08
2023-10-10T23:42:10.810Z,75.19
2023-10-10T23:44:42.795Z,74.97
2023-10-10T23:47:14.738Z,75.57
2023-10-10T23:49:48.480Z,75.50
2023-10-10T23:52:22.539Z,75.44
2023-10-10T23:54:54.463Z,75.90
2023-10-10T23:57:26.391Z,75.87
2023-10-10T23:59:58.454Z,75.91
